sensor_id;sensor_type;location;lat;lon;timestamp;P1;durP1;ratioP1;P2;durP2;ratioP2
34715;SDS011;20943;42.870;74.606;2022-08-02T00:00:18;0.80;;;0.80;;
34715;SDS011;20943;42.870;74.606;2022-08-02T00:02:45;1.75;;;0.68;;
34715;SDS011;20943;42.870;74.606;2022-08-02T00:05:13;6.20;;;1.23;;
34715;SDS011;20943;42.870;74.606;2022-08-02T00:07:39;2.47;;;1.17;;
34715;SDS011;20943;42.870;74.606;2022-08-02T00:10:06;2.17;;;1.00;;
34715;SDS011;20943;42.870;74.606;2022-08-02T00:12:33;0.98;;;0.90;;
34715;SDS011;20943;42.870;74.606;2022-08-02T00:15:00;5.93;;;1.30;;
34715;SDS011;20943;42.870;74.606;2022-08-02T00:17:26;5.57;;;1.33;;
34715;SDS011;20943;42.870;74.606;2022-08-02T00:19:52;1.63;;;0.90;;
34715;SDS011;20943;42.870;74.606;2022-08-02T00:22:18;1.73;;;0.90;;
34715;SDS011;20943;42.870;74.606;2022-08-02T00:24:45;3.28;;;1.05;;
34715;SDS011;20943;42.870;74.606;2022-08-02T00:27:11;4.65;;;1.20;;
34715;SDS011;20943;42.870;74.606;2022-08-02T00:29:38;3.75;;;1.02;;
34715;SDS011;20943;42.870;74.606;2022-08-02T00:32:05;5.65;;;0.90;;
34715;SDS011;20943;42.870;74.606;2022-08-02T00:34:31;6.13;;;1.00;;
34715;SDS011;20943;42.870;74.606;2022-08-02T00:36:57;4.43;;;1.38;;
34715;SDS011;20943;42.870;74.606;2022-08-02T00:39:24;5.00;;;1.17;;
34715;SDS011;20943;42.870;74.606;2022-08-02T00:41:51;2.25;;;0.90;;
34715;SDS011;20943;42.870;74.606;2022-08-02T00:44:18;4.25;;;1.05;;
34715;SDS011;20943;42.870;74.606;2022-08-02T00:46:45;3.10;;;1.20;;
34715;SDS011;20943;42.870;74.606;2022-08-02T00:49:12;3.00;;;1.08;;
34715;SDS011;20943;42.870;74.606;2022-08-02T00:51:38;6.97;;;1.40;;
34715;SDS011;20943;42.870;74.606;2022-08-02T00:54:05;5.72;;;2.13;;
34715;SDS011;20943;42.870;74.606;2022-08-02T00:56:32;8.60;;;2.00;;
34715;SDS011;20943;42.870;74.606;2022-08-02T00:58:58;10.88;;;1.55;;
34715;SDS011;20943;42.870;74.606;2022-08-02T01:01:24;8.25;;;2.17;;
34715;SDS011;20943;42.870;74.606;2022-08-02T01:04:11;10.52;;;1.85;;
34715;SDS011;20943;42.870;74.606;2022-08-02T01:06:38;10.98;;;1.73;;
34715;SDS011;20943;42.870;74.606;2022-08-02T01:09:05;8.98;;;1.48;;
34715;SDS011;20943;42.870;74.606;2022-08-02T01:11:32;3.70;;;1.50;;
34715;SDS011;20943;42.870;74.606;2022-08-02T01:14:03;3.55;;;1.35;;
34715;SDS011;20943;42.870;74.606;2022-08-02T01:16:31;5.93;;;1.80;;
34715;SDS011;20943;42.870;74.606;2022-08-02T01:18:59;34.40;;;3.00;;
34715;SDS011;20943;42.870;74.606;2022-08-02T01:21:31;15.07;;;2.35;;
34715;SDS011;20943;42.870;74.606;2022-08-02T01:36:30;8.13;;;2.40;;
34715;SDS011;20943;42.870;74.606;2022-08-02T01:38:57;10.05;;;2.17;;
34715;SDS011;20943;42.870;74.606;2022-08-02T01:41:24;8.10;;;1.95;;
34715;SDS011;20943;42.870;74.606;2022-08-02T01:43:56;3.88;;;2.10;;
34715;SDS011;20943;42.870;74.606;2022-08-02T01:48:49;16.65;;;3.20;;
34715;SDS011;20943;42.870;74.606;2022-08-02T01:51:18;20.48;;;3.20;;
34715;SDS011;20943;42.870;74.606;2022-08-02T01:54:04;12.18;;;3.25;;
34715;SDS011;20943;42.870;74.606;2022-08-02T01:56:32;20.40;;;3.80;;
34715;SDS011;20943;42.870;74.606;2022-08-02T01:58:59;12.88;;;4.28;;
34715;SDS011;20943;42.870;74.606;2022-08-02T02:01:26;18.17;;;4.78;;
34715;SDS011;20943;42.870;74.606;2022-08-02T02:04:06;17.20;;;5.13;;
34715;SDS011;20943;42.870;74.606;2022-08-02T02:06:34;18.88;;;4.68;;
34715;SDS011;20943;42.870;74.606;2022-08-02T02:09:01;23.35;;;6.15;;
34715;SDS011;20943;42.870;74.606;2022-08-02T02:11:27;65.72;;;7.65;;
34715;SDS011;20943;42.870;74.606;2022-08-02T02:13:55;19.73;;;4.43;;
34715;SDS011;20943;42.870;74.606;2022-08-02T02:16:23;18.67;;;4.50;;
34715;SDS011;20943;42.870;74.606;2022-08-02T02:18:51;13.48;;;3.60;;
34715;SDS011;20943;42.870;74.606;2022-08-02T02:21:18;22.58;;;4.15;;
34715;SDS011;20943;42.870;74.606;2022-08-02T02:23:44;15.45;;;3.63;;
34715;SDS011;20943;42.870;74.606;2022-08-02T02:26:12;14.15;;;3.20;;
34715;SDS011;20943;42.870;74.606;2022-08-02T02:28:40;12.38;;;3.90;;
34715;SDS011;20943;42.870;74.606;2022-08-02T02:31:11;12.82;;;4.28;;
34715;SDS011;20943;42.870;74.606;2022-08-02T02:33:39;17.45;;;5.35;;
34715;SDS011;20943;42.870;74.606;2022-08-02T02:36:07;16.38;;;7.05;;
34715;SDS011;20943;42.870;74.606;2022-08-02T02:38:33;23.60;;;8.93;;
34715;SDS011;20943;42.870;74.606;2022-08-02T02:41:02;17.83;;;8.05;;
34715;SDS011;20943;42.870;74.606;2022-08-02T02:43:32;18.63;;;6.97;;
34715;SDS011;20943;42.870;74.606;2022-08-02T02:45:59;19.42;;;7.50;;
34715;SDS011;20943;42.870;74.606;2022-08-02T02:48:26;17.88;;;6.45;;
34715;SDS011;20943;42.870;74.606;2022-08-02T02:50:55;17.25;;;5.55;;
34715;SDS011;20943;42.870;74.606;2022-08-02T02:53:22;11.80;;;5.00;;
34715;SDS011;20943;42.870;74.606;2022-08-02T02:55:49;14.88;;;4.80;;
34715;SDS011;20943;42.870;74.606;2022-08-02T02:58:16;14.98;;;4.85;;
34715;SDS011;20943;42.870;74.606;2022-08-02T03:00:43;12.02;;;5.68;;
34715;SDS011;20943;42.870;74.606;2022-08-02T03:03:29;12.02;;;5.38;;
34715;SDS011;20943;42.870;74.606;2022-08-02T03:05:56;17.15;;;4.80;;
34715;SDS011;20943;42.870;74.606;2022-08-02T03:08:23;14.30;;;3.70;;
34715;SDS011;20943;42.870;74.606;2022-08-02T03:10:49;6.40;;;3.45;;
34715;SDS011;20943;42.870;74.606;2022-08-02T03:13:24;16.33;;;3.70;;
34715;SDS011;20943;42.870;74.606;2022-08-02T03:15:54;10.70;;;3.40;;
34715;SDS011;20943;42.870;74.606;2022-08-02T03:18:31;11.35;;;3.13;;
34715;SDS011;20943;42.870;74.606;2022-08-02T03:21:02;11.35;;;2.78;;
34715;SDS011;20943;42.870;74.606;2022-08-02T03:23:29;15.98;;;3.25;;
34715;SDS011;20943;42.870;74.606;2022-08-02T03:25:58;10.15;;;2.80;;
34715;SDS011;20943;42.870;74.606;2022-08-02T03:28:25;12.13;;;2.85;;
34715;SDS011;20943;42.870;74.606;2022-08-02T03:30:58;9.38;;;2.40;;
34715;SDS011;20943;42.870;74.606;2022-08-02T03:33:25;8.68;;;2.72;;
34715;SDS011;20943;42.870;74.606;2022-08-02T03:35:59;9.85;;;2.45;;
34715;SDS011;20943;42.870;74.606;2022-08-02T03:38:26;14.50;;;3.17;;
34715;SDS011;20943;42.870;74.606;2022-08-02T03:40:56;13.10;;;3.97;;
34715;SDS011;20943;42.870;74.606;2022-08-02T03:43:41;10.23;;;4.18;;
34715;SDS011;20943;42.870;74.606;2022-08-02T03:46:28;13.90;;;3.42;;
34715;SDS011;20943;42.870;74.606;2022-08-02T03:48:58;8.60;;;3.50;;
34715;SDS011;20943;42.870;74.606;2022-08-02T03:51:24;4.82;;;2.72;;
34715;SDS011;20943;42.870;74.606;2022-08-02T03:53:59;5.38;;;2.50;;
34715;SDS011;20943;42.870;74.606;2022-08-02T03:56:39;16.15;;;2.63;;
34715;SDS011;20943;42.870;74.606;2022-08-02T03:59:10;9.77;;;2.78;;
34715;SDS011;20943;42.870;74.606;2022-08-02T04:01:55;7.38;;;2.50;;
34715;SDS011;20943;42.870;74.606;2022-08-02T04:07:16;6.60;;;2.30;;
34715;SDS011;20943;42.870;74.606;2022-08-02T04:09:43;7.68;;;2.25;;
34715;SDS011;20943;42.870;74.606;2022-08-02T04:12:11;6.07;;;3.42;;
34715;SDS011;20943;42.870;74.606;2022-08-02T04:14:45;6.90;;;2.45;;
34715;SDS011;20943;42.870;74.606;2022-08-02T04:17:22;9.05;;;2.42;;
34715;SDS011;20943;42.870;74.606;2022-08-02T04:19:54;5.90;;;2.13;;
34715;SDS011;20943;42.870;74.606;2022-08-02T04:22:26;9.57;;;2.00;;
34715;SDS011;20943;42.870;74.606;2022-08-02T04:24:58;13.60;;;2.40;;
34715;SDS011;20943;42.870;74.606;2022-08-02T04:27:27;3.80;;;1.70;;
34715;SDS011;20943;42.870;74.606;2022-08-02T04:29:57;6.17;;;2.23;;
34715;SDS011;20943;42.870;74.606;2022-08-02T04:32:25;6.15;;;1.48;;
34715;SDS011;20943;42.870;74.606;2022-08-02T04:35:00;8.75;;;2.10;;
34715;SDS011;20943;42.870;74.606;2022-08-02T04:37:27;4.75;;;1.45;;
34715;SDS011;20943;42.870;74.606;2022-08-02T04:39:53;3.30;;;1.38;;
34715;SDS011;20943;42.870;74.606;2022-08-02T04:42:23;7.25;;;1.75;;
34715;SDS011;20943;42.870;74.606;2022-08-02T04:44:50;5.18;;;1.83;;
34715;SDS011;20943;42.870;74.606;2022-08-02T04:47:17;7.35;;;1.42;;
34715;SDS011;20943;42.870;74.606;2022-08-02T04:49:43;6.40;;;1.45;;
34715;SDS011;20943;42.870;74.606;2022-08-02T04:52:11;7.28;;;2.30;;
34715;SDS011;20943;42.870;74.606;2022-08-02T04:54:37;6.80;;;1.30;;
34715;SDS011;20943;42.870;74.606;2022-08-02T04:57:05;4.18;;;1.42;;
34715;SDS011;20943;42.870;74.606;2022-08-02T04:59:50;3.67;;;2.03;;
34715;SDS011;20943;42.870;74.606;2022-08-02T05:02:20;5.20;;;1.40;;
34715;SDS011;20943;42.870;74.606;2022-08-02T05:04:51;5.13;;;1.70;;
34715;SDS011;20943;42.870;74.606;2022-08-02T05:07:17;4.38;;;2.13;;
34715;SDS011;20943;42.870;74.606;2022-08-02T05:13:17;5.83;;;1.47;;
34715;SDS011;20943;42.870;74.606;2022-08-02T05:15:54;8.50;;;1.67;;
34715;SDS011;20943;42.870;74.606;2022-08-02T05:18:26;4.80;;;1.52;;
34715;SDS011;20943;42.870;74.606;2022-08-02T05:20:59;10.57;;;1.80;;
34715;SDS011;20943;42.870;74.606;2022-08-02T05:26:29;6.28;;;2.30;;
34715;SDS011;20943;42.870;74.606;2022-08-02T05:28:56;7.72;;;2.28;;
34715;SDS011;20943;42.870;74.606;2022-08-02T05:31:28;9.85;;;2.22;;
34715;SDS011;20943;42.870;74.606;2022-08-02T05:33:58;4.78;;;2.50;;
34715;SDS011;20943;42.870;74.606;2022-08-02T05:36:33;9.45;;;2.78;;
34715;SDS011;20943;42.870;74.606;2022-08-02T05:39:03;8.50;;;2.30;;
34715;SDS011;20943;42.870;74.606;2022-08-02T05:44:35;8.30;;;1.85;;
34715;SDS011;20943;42.870;74.606;2022-08-02T05:47:11;9.15;;;2.40;;
34715;SDS011;20943;42.870;74.606;2022-08-02T05:49:37;6.25;;;2.67;;
34715;SDS011;20943;42.870;74.606;2022-08-02T05:52:17;11.38;;;3.15;;
34715;SDS011;20943;42.870;74.606;2022-08-02T05:54:48;15.98;;;3.95;;
34715;SDS011;20943;42.870;74.606;2022-08-02T06:00:13;12.90;;;4.28;;
34715;SDS011;20943;42.870;74.606;2022-08-02T06:06:05;16.88;;;6.00;;
34715;SDS011;20943;42.870;74.606;2022-08-02T06:08:41;10.82;;;5.28;;
34715;SDS011;20943;42.870;74.606;2022-08-02T06:11:11;12.85;;;5.32;;
34715;SDS011;20943;42.870;74.606;2022-08-02T06:13:40;11.18;;;5.25;;
34715;SDS011;20943;42.870;74.606;2022-08-02T06:16:09;12.10;;;5.30;;
34715;SDS011;20943;42.870;74.606;2022-08-02T06:18:41;12.70;;;4.97;;
34715;SDS011;20943;42.870;74.606;2022-08-02T06:21:12;12.27;;;5.93;;
34715;SDS011;20943;42.870;74.606;2022-08-02T06:23:52;12.57;;;4.93;;
34715;SDS011;20943;42.870;74.606;2022-08-02T06:26:33;15.07;;;5.00;;
34715;SDS011;20943;42.870;74.606;2022-08-02T06:29:22;9.95;;;4.30;;
34715;SDS011;20943;42.870;74.606;2022-08-02T06:31:54;14.35;;;4.47;;
34715;SDS011;20943;42.870;74.606;2022-08-02T06:34:30;10.25;;;4.38;;
34715;SDS011;20943;42.870;74.606;2022-08-02T06:37:06;8.43;;;4.13;;
34715;SDS011;20943;42.870;74.606;2022-08-02T06:42:36;5.03;;;2.88;;
34715;SDS011;20943;42.870;74.606;2022-08-02T06:45:13;5.65;;;2.95;;
34715;SDS011;20943;42.870;74.606;2022-08-02T06:47:42;7.85;;;3.00;;
34715;SDS011;20943;42.870;74.606;2022-08-02T06:50:10;13.88;;;2.88;;
34715;SDS011;20943;42.870;74.606;2022-08-02T06:55:47;5.35;;;2.00;;
34715;SDS011;20943;42.870;74.606;2022-08-02T06:58:14;3.80;;;1.60;;
34715;SDS011;20943;42.870;74.606;2022-08-02T07:03:39;5.95;;;1.90;;
34715;SDS011;20943;42.870;74.606;2022-08-02T07:06:18;7.82;;;1.52;;
34715;SDS011;20943;42.870;74.606;2022-08-02T07:08:51;7.53;;;2.45;;
34715;SDS011;20943;42.870;74.606;2022-08-02T07:11:21;7.97;;;1.80;;
34715;SDS011;20943;42.870;74.606;2022-08-02T07:14:09;5.30;;;2.00;;
34715;SDS011;20943;42.870;74.606;2022-08-02T07:16:38;4.03;;;1.80;;
34715;SDS011;20943;42.870;74.606;2022-08-02T07:19:10;5.88;;;1.73;;
34715;SDS011;20943;42.870;74.606;2022-08-02T07:21:38;7.57;;;2.35;;
34715;SDS011;20943;42.870;74.606;2022-08-02T07:24:09;6.57;;;2.00;;
34715;SDS011;20943;42.870;74.606;2022-08-02T07:26:49;6.63;;;2.10;;
34715;SDS011;20943;42.870;74.606;2022-08-02T07:29:27;4.90;;;2.00;;
34715;SDS011;20943;42.870;74.606;2022-08-02T07:32:05;8.93;;;2.80;;
34715;SDS011;20943;42.870;74.606;2022-08-02T07:34:35;12.93;;;4.15;;
34715;SDS011;20943;42.870;74.606;2022-08-02T07:37:10;5.30;;;2.90;;
34715;SDS011;20943;42.870;74.606;2022-08-02T07:39:44;7.38;;;3.17;;
34715;SDS011;20943;42.870;74.606;2022-08-02T07:42:15;7.65;;;2.90;;
34715;SDS011;20943;42.870;74.606;2022-08-02T07:44:44;10.25;;;3.40;;
34715;SDS011;20943;42.870;74.606;2022-08-02T07:47:23;8.18;;;3.55;;
34715;SDS011;20943;42.870;74.606;2022-08-02T07:50:01;8.48;;;3.42;;
34715;SDS011;20943;42.870;74.606;2022-08-02T07:56:33;5.88;;;3.22;;
34715;SDS011;20943;42.870;74.606;2022-08-02T07:59:13;6.63;;;3.13;;
34715;SDS011;20943;42.870;74.606;2022-08-02T08:04:46;11.55;;;3.50;;
34715;SDS011;20943;42.870;74.606;2022-08-02T08:07:23;8.75;;;3.90;;
34715;SDS011;20943;42.870;74.606;2022-08-02T08:10:04;11.70;;;4.28;;
34715;SDS011;20943;42.870;74.606;2022-08-02T08:12:59;9.65;;;2.92;;
34715;SDS011;20943;42.870;74.606;2022-08-02T08:15:50;15.90;;;3.22;;
34715;SDS011;20943;42.870;74.606;2022-08-02T08:18:32;28.80;;;6.03;;
34715;SDS011;20943;42.870;74.606;2022-08-02T08:23:53;4.13;;;1.88;;
34715;SDS011;20943;42.870;74.606;2022-08-02T08:26:46;2.35;;;1.65;;
34715;SDS011;20943;42.870;74.606;2022-08-02T08:29:28;10.73;;;1.70;;
34715;SDS011;20943;42.870;74.606;2022-08-02T08:32:29;3.90;;;1.90;;
34715;SDS011;20943;42.870;74.606;2022-08-02T08:35:11;1.83;;;1.40;;
34715;SDS011;20943;42.870;74.606;2022-08-02T08:38:01;8.48;;;2.58;;
34715;SDS011;20943;42.870;74.606;2022-08-02T08:40:47;4.45;;;1.38;;
34715;SDS011;20943;42.870;74.606;2022-08-02T08:43:38;6.05;;;1.33;;
34715;SDS011;20943;42.870;74.606;2022-08-02T08:46:32;4.95;;;2.17;;
34715;SDS011;20943;42.870;74.606;2022-08-02T08:49:17;5.18;;;1.92;;
34715;SDS011;20943;42.870;74.606;2022-08-02T08:51:55;3.92;;;1.70;;
34715;SDS011;20943;42.870;74.606;2022-08-02T08:54:43;5.85;;;1.92;;
34715;SDS011;20943;42.870;74.606;2022-08-02T08:57:24;3.03;;;1.60;;
34715;SDS011;20943;42.870;74.606;2022-08-02T09:00:21;4.82;;;1.60;;
34715;SDS011;20943;42.870;74.606;2022-08-02T09:03:01;7.07;;;2.10;;
34715;SDS011;20943;42.870;74.606;2022-08-02T09:05:45;6.05;;;3.20;;
34715;SDS011;20943;42.870;74.606;2022-08-02T09:08:46;12.00;;;3.20;;
34715;SDS011;20943;42.870;74.606;2022-08-02T09:17:14;11.13;;;3.05;;
34715;SDS011;20943;42.870;74.606;2022-08-02T09:20:01;10.30;;;2.90;;
34715;SDS011;20943;42.870;74.606;2022-08-02T09:25:57;8.10;;;2.92;;
34715;SDS011;20943;42.870;74.606;2022-08-02T09:31:42;9.77;;;3.13;;
34715;SDS011;20943;42.870;74.606;2022-08-02T09:37:37;9.32;;;3.83;;
34715;SDS011;20943;42.870;74.606;2022-08-02T09:40:33;12.02;;;3.83;;
34715;SDS011;20943;42.870;74.606;2022-08-02T09:43:04;11.52;;;4.07;;
34715;SDS011;20943;42.870;74.606;2022-08-02T09:57:32;12.65;;;2.70;;
34715;SDS011;20943;42.870;74.606;2022-08-02T10:00:18;5.38;;;1.42;;
34715;SDS011;20943;42.870;74.606;2022-08-02T10:06:21;5.75;;;1.70;;
34715;SDS011;20943;42.870;74.606;2022-08-02T10:09:15;6.00;;;2.05;;
34715;SDS011;20943;42.870;74.606;2022-08-02T10:11:48;7.05;;;2.17;;
34715;SDS011;20943;42.870;74.606;2022-08-02T10:14:22;5.05;;;1.90;;
34715;SDS011;20943;42.870;74.606;2022-08-02T10:16:57;9.07;;;2.50;;
34715;SDS011;20943;42.870;74.606;2022-08-02T10:19:50;19.05;;;3.85;;
34715;SDS011;20943;42.870;74.606;2022-08-02T10:22:29;6.53;;;2.70;;
34715;SDS011;20943;42.870;74.606;2022-08-02T10:25:19;10.52;;;2.70;;
34715;SDS011;20943;42.870;74.606;2022-08-02T10:28:00;6.85;;;2.00;;
34715;SDS011;20943;42.870;74.606;2022-08-02T10:30:37;17.73;;;4.00;;
34715;SDS011;20943;42.870;74.606;2022-08-02T10:33:16;13.43;;;2.50;;
34715;SDS011;20943;42.870;74.606;2022-08-02T10:35:59;10.50;;;2.78;;
34715;SDS011;20943;42.870;74.606;2022-08-02T10:38:36;7.13;;;2.08;;
34715;SDS011;20943;42.870;74.606;2022-08-02T10:41:38;15.38;;;4.43;;
34715;SDS011;20943;42.870;74.606;2022-08-02T10:44:25;8.15;;;2.08;;
34715;SDS011;20943;42.870;74.606;2022-08-02T10:47:36;9.50;;;2.97;;
34715;SDS011;20943;42.870;74.606;2022-08-02T10:49:54;11.67;;;2.20;;
34715;SDS011;20943;42.870;74.606;2022-08-02T10:52:32;12.05;;;3.33;;
34715;SDS011;20943;42.870;74.606;2022-08-02T10:55:11;7.68;;;3.10;;
34715;SDS011;20943;42.870;74.606;2022-08-02T11:03:05;17.75;;;2.80;;
34715;SDS011;20943;42.870;74.606;2022-08-02T11:06:00;12.57;;;3.03;;
34715;SDS011;20943;42.870;74.606;2022-08-02T11:08:43;18.50;;;3.47;;
34715;SDS011;20943;42.870;74.606;2022-08-02T11:14:12;11.75;;;2.42;;
34715;SDS011;20943;42.870;74.606;2022-08-02T11:20:12;32.92;;;3.47;;
34715;SDS011;20943;42.870;74.606;2022-08-02T11:22:29;18.17;;;2.75;;
34715;SDS011;20943;42.870;74.606;2022-08-02T11:30:36;38.80;;;4.65;;
34715;SDS011;20943;42.870;74.606;2022-08-02T11:36:17;39.65;;;4.40;;
34715;SDS011;20943;42.870;74.606;2022-08-02T11:41:40;36.33;;;3.80;;
34715;SDS011;20943;42.870;74.606;2022-08-02T11:44:14;16.48;;;2.97;;
34715;SDS011;20943;42.870;74.606;2022-08-02T11:46:57;32.83;;;3.22;;
34715;SDS011;20943;42.870;74.606;2022-08-02T11:49:28;11.95;;;3.10;;
34715;SDS011;20943;42.870;74.606;2022-08-02T11:52:11;20.67;;;3.03;;
34715;SDS011;20943;42.870;74.606;2022-08-02T11:54:50;14.90;;;2.95;;
34715;SDS011;20943;42.870;74.606;2022-08-02T11:57:23;16.80;;;3.10;;
34715;SDS011;20943;42.870;74.606;2022-08-02T11:59:55;12.43;;;2.60;;
34715;SDS011;20943;42.870;74.606;2022-08-02T12:02:46;8.82;;;2.42;;
34715;SDS011;20943;42.870;74.606;2022-08-02T12:05:25;13.65;;;2.83;;
34715;SDS011;20943;42.870;74.606;2022-08-02T12:08:07;21.10;;;4.80;;
34715;SDS011;20943;42.870;74.606;2022-08-02T12:11:03;14.02;;;3.15;;
34715;SDS011;20943;42.870;74.606;2022-08-02T12:13:41;16.88;;;3.17;;
34715;SDS011;20943;42.870;74.606;2022-08-02T12:16:34;7.43;;;2.40;;
34715;SDS011;20943;42.870;74.606;2022-08-02T12:19:19;9.60;;;2.05;;
34715;SDS011;20943;42.870;74.606;2022-08-02T12:24:48;14.10;;;2.90;;
34715;SDS011;20943;42.870;74.606;2022-08-02T12:29:48;11.82;;;2.55;;
34715;SDS011;20943;42.870;74.606;2022-08-02T12:32:30;18.60;;;2.60;;
34715;SDS011;20943;42.870;74.606;2022-08-02T12:37:49;14.55;;;2.42;;
34715;SDS011;20943;42.870;74.606;2022-08-02T12:40:25;9.15;;;2.38;;
34715;SDS011;20943;42.870;74.606;2022-08-02T12:43:15;16.23;;;2.30;;
34715;SDS011;20943;42.870;74.606;2022-08-02T12:45:51;6.13;;;2.00;;
34715;SDS011;20943;42.870;74.606;2022-08-02T12:48:45;7.25;;;2.30;;
34715;SDS011;20943;42.870;74.606;2022-08-02T12:51:35;11.30;;;2.13;;
34715;SDS011;20943;42.870;74.606;2022-08-02T12:54:15;6.47;;;1.70;;
34715;SDS011;20943;42.870;74.606;2022-08-02T12:56:41;9.90;;;2.25;;
34715;SDS011;20943;42.870;74.606;2022-08-02T12:59:08;8.27;;;1.90;;
34715;SDS011;20943;42.870;74.606;2022-08-02T13:01:34;10.63;;;2.05;;
34715;SDS011;20943;42.870;74.606;2022-08-02T13:04:01;7.88;;;1.90;;
34715;SDS011;20943;42.870;74.606;2022-08-02T13:06:28;6.82;;;1.80;;
34715;SDS011;20943;42.870;74.606;2022-08-02T13:08:55;5.07;;;1.80;;
34715;SDS011;20943;42.870;74.606;2022-08-02T13:11:23;3.80;;;1.38;;
34715;SDS011;20943;42.870;74.606;2022-08-02T13:13:49;6.88;;;2.08;;
34715;SDS011;20943;42.870;74.606;2022-08-02T13:16:16;5.88;;;1.52;;
34715;SDS011;20943;42.870;74.606;2022-08-02T13:18:42;6.28;;;1.63;;
34715;SDS011;20943;42.870;74.606;2022-08-02T13:21:11;5.53;;;1.50;;
34715;SDS011;20943;42.870;74.606;2022-08-02T13:23:38;8.10;;;1.95;;
34715;SDS011;20943;42.870;74.606;2022-08-02T13:26:04;7.70;;;1.90;;
34715;SDS011;20943;42.870;74.606;2022-08-02T13:28:31;4.32;;;1.45;;
34715;SDS011;20943;42.870;74.606;2022-08-02T13:30:59;4.45;;;1.40;;
34715;SDS011;20943;42.870;74.606;2022-08-02T13:33:26;6.03;;;1.38;;
34715;SDS011;20943;42.870;74.606;2022-08-02T13:35:53;4.90;;;1.35;;
34715;SDS011;20943;42.870;74.606;2022-08-02T13:38:19;1.92;;;1.50;;
34715;SDS011;20943;42.870;74.606;2022-08-02T13:40:46;7.30;;;1.58;;
34715;SDS011;20943;42.870;74.606;2022-08-02T13:43:30;8.48;;;1.88;;
34715;SDS011;20943;42.870;74.606;2022-08-02T13:46:03;5.53;;;1.75;;
34715;SDS011;20943;42.870;74.606;2022-08-02T13:48:30;5.05;;;1.50;;
34715;SDS011;20943;42.870;74.606;2022-08-02T13:50:56;5.65;;;1.88;;
34715;SDS011;20943;42.870;74.606;2022-08-02T13:53:23;11.55;;;2.25;;
34715;SDS011;20943;42.870;74.606;2022-08-02T13:55:52;8.07;;;2.95;;
34715;SDS011;20943;42.870;74.606;2022-08-02T13:58:19;10.68;;;4.15;;
34715;SDS011;20943;42.870;74.606;2022-08-02T14:00:46;19.05;;;4.15;;
34715;SDS011;20943;42.870;74.606;2022-08-02T14:03:13;14.93;;;4.05;;
34715;SDS011;20943;42.870;74.606;2022-08-02T14:05:40;14.57;;;3.83;;
34715;SDS011;20943;42.870;74.606;2022-08-02T14:08:07;24.88;;;7.07;;
34715;SDS011;20943;42.870;74.606;2022-08-02T14:10:36;22.80;;;5.90;;
34715;SDS011;20943;42.870;74.606;2022-08-02T14:13:05;22.58;;;5.35;;
34715;SDS011;20943;42.870;74.606;2022-08-02T14:15:32;22.45;;;5.22;;
34715;SDS011;20943;42.870;74.606;2022-08-02T14:17:59;21.48;;;5.03;;
34715;SDS011;20943;42.870;74.606;2022-08-02T14:20:25;24.20;;;5.90;;
34715;SDS011;20943;42.870;74.606;2022-08-02T14:22:52;16.95;;;6.25;;
34715;SDS011;20943;42.870;74.606;2022-08-02T14:25:18;18.25;;;5.97;;
34715;SDS011;20943;42.870;74.606;2022-08-02T14:27:45;23.73;;;6.43;;
34715;SDS011;20943;42.870;74.606;2022-08-02T14:30:11;21.55;;;6.07;;
34715;SDS011;20943;42.870;74.606;2022-08-02T14:32:37;17.77;;;5.70;;
34715;SDS011;20943;42.870;74.606;2022-08-02T14:35:04;22.58;;;6.47;;
34715;SDS011;20943;42.870;74.606;2022-08-02T14:37:31;20.65;;;5.85;;
34715;SDS011;20943;42.870;74.606;2022-08-02T14:39:58;26.13;;;7.03;;
34715;SDS011;20943;42.870;74.606;2022-08-02T14:42:24;17.77;;;6.78;;
34715;SDS011;20943;42.870;74.606;2022-08-02T14:44:53;20.15;;;7.45;;
34715;SDS011;20943;42.870;74.606;2022-08-02T14:47:20;19.15;;;7.00;;
34715;SDS011;20943;42.870;74.606;2022-08-02T14:49:47;27.10;;;13.02;;
34715;SDS011;20943;42.870;74.606;2022-08-02T14:52:13;31.48;;;13.48;;
34715;SDS011;20943;42.870;74.606;2022-08-02T14:54:40;30.02;;;13.68;;
34715;SDS011;20943;42.870;74.606;2022-08-02T14:57:07;28.23;;;12.75;;
34715;SDS011;20943;42.870;74.606;2022-08-02T14:59:34;34.05;;;13.73;;
34715;SDS011;20943;42.870;74.606;2022-08-02T15:02:00;39.70;;;12.43;;
34715;SDS011;20943;42.870;74.606;2022-08-02T15:04:27;33.25;;;11.25;;
34715;SDS011;20943;42.870;74.606;2022-08-02T15:06:55;43.35;;;13.02;;
34715;SDS011;20943;42.870;74.606;2022-08-02T15:09:21;33.90;;;11.70;;
34715;SDS011;20943;42.870;74.606;2022-08-02T15:11:47;28.35;;;12.23;;
34715;SDS011;20943;42.870;74.606;2022-08-02T15:14:17;37.50;;;11.90;;
34715;SDS011;20943;42.870;74.606;2022-08-02T15:16:43;33.53;;;10.87;;
34715;SDS011;20943;42.870;74.606;2022-08-02T15:19:10;29.08;;;10.98;;
34715;SDS011;20943;42.870;74.606;2022-08-02T15:21:36;21.17;;;9.80;;
34715;SDS011;20943;42.870;74.606;2022-08-02T15:24:03;26.73;;;10.77;;
34715;SDS011;20943;42.870;74.606;2022-08-02T15:26:29;26.38;;;9.88;;
34715;SDS011;20943;42.870;74.606;2022-08-02T15:28:55;25.65;;;11.05;;
34715;SDS011;20943;42.870;74.606;2022-08-02T15:31:22;35.10;;;12.95;;
34715;SDS011;20943;42.870;74.606;2022-08-02T15:33:48;32.58;;;13.38;;
34715;SDS011;20943;42.870;74.606;2022-08-02T15:36:15;30.52;;;12.65;;
34715;SDS011;20943;42.870;74.606;2022-08-02T15:38:41;36.08;;;16.40;;
34715;SDS011;20943;42.870;74.606;2022-08-02T15:41:08;31.25;;;13.25;;
34715;SDS011;20943;42.870;74.606;2022-08-02T15:43:37;35.38;;;11.90;;
34715;SDS011;20943;42.870;74.606;2022-08-02T15:46:04;32.45;;;12.00;;
34715;SDS011;20943;42.870;74.606;2022-08-02T15:48:31;31.42;;;13.40;;
34715;SDS011;20943;42.870;74.606;2022-08-02T15:50:58;36.22;;;11.07;;
34715;SDS011;20943;42.870;74.606;2022-08-02T15:53:24;36.63;;;11.43;;
34715;SDS011;20943;42.870;74.606;2022-08-02T15:55:50;28.85;;;10.05;;
34715;SDS011;20943;42.870;74.606;2022-08-02T15:58:18;28.77;;;10.40;;
34715;SDS011;20943;42.870;74.606;2022-08-02T16:00:44;52.58;;;9.90;;
34715;SDS011;20943;42.870;74.606;2022-08-02T16:03:10;26.77;;;9.60;;
34715;SDS011;20943;42.870;74.606;2022-08-02T16:05:37;29.88;;;8.93;;
34715;SDS011;20943;42.870;74.606;2022-08-02T16:08:08;38.83;;;9.20;;
34715;SDS011;20943;42.870;74.606;2022-08-02T16:10:36;37.53;;;9.38;;
34715;SDS011;20943;42.870;74.606;2022-08-02T16:16:07;36.65;;;13.50;;
34715;SDS011;20943;42.870;74.606;2022-08-02T16:18:33;53.35;;;14.00;;
34715;SDS011;20943;42.870;74.606;2022-08-02T16:20:59;27.02;;;10.60;;
34715;SDS011;20943;42.870;74.606;2022-08-02T16:23:26;33.05;;;10.85;;
34715;SDS011;20943;42.870;74.606;2022-08-02T16:25:55;34.05;;;10.35;;
34715;SDS011;20943;42.870;74.606;2022-08-02T16:28:22;29.17;;;11.60;;
34715;SDS011;20943;42.870;74.606;2022-08-02T16:30:48;28.20;;;10.88;;
34715;SDS011;20943;42.870;74.606;2022-08-02T16:33:14;29.98;;;11.45;;
34715;SDS011;20943;42.870;74.606;2022-08-02T16:35:41;38.33;;;11.68;;
34715;SDS011;20943;42.870;74.606;2022-08-02T16:44:01;46.28;;;12.60;;
34715;SDS011;20943;42.870;74.606;2022-08-02T16:46:27;47.38;;;12.52;;
34715;SDS011;20943;42.870;74.606;2022-08-02T16:48:54;32.05;;;11.98;;
34715;SDS011;20943;42.870;74.606;2022-08-02T16:51:21;44.20;;;12.68;;
34715;SDS011;20943;42.870;74.606;2022-08-02T16:53:49;36.67;;;11.57;;
34715;SDS011;20943;42.870;74.606;2022-08-02T16:56:16;26.90;;;11.75;;
34715;SDS011;20943;42.870;74.606;2022-08-02T16:58:42;36.15;;;12.25;;